sensor_id;sensor_type;location;lat;lon;timestamp;pressure;altitude;pressure_sealevel;temperature;humidity
20987;BME280;10652;50.306;8.570;2024-01-27T00:02:08;99639.53;;;3.43;69.09
20987;BME280;10652;50.306;8.570;2024-01-27T00:06:10;99656.75;;;3.31;69.68
20987;BME280;10652;50.306;8.570;2024-01-27T00:10:12;99656.66;;;3.19;70.23
20987;BME280;10652;50.306;8.570;2024-01-27T00:14:14;99662.63;;;3.09;71.46
20987;BME280;10652;50.306;8.570;2024-01-27T00:18:17;99672.19;;;3.13;73.37
20987;BME280;10652;50.306;8.570;2024-01-27T00:22:19;99660.09;;;3.18;72.74
20987;BME280;10652;50.306;8.570;2024-01-27T00:26:22;99665.22;;;3.09;72.57
20987;BME280;10652;50.306;8.570;2024-01-27T00:30:24;99663.41;;;2.99;73.31
20987;BME280;10652;50.306;8.570;2024-01-27T00:34:28;99665.97;;;2.95;73.67
20987;BME280;10652;50.306;8.570;2024-01-27T00:38:30;99659.09;;;3.01;74.77
20987;BME280;10652;50.306;8.570;2024-01-27T00:42:32;99662.69;;;3.15;74.88
20987;BME280;10652;50.306;8.570;2024-01-27T00:46:34;99677.44;;;3.22;74.33
20987;BME280;10652;50.306;8.570;2024-01-27T00:50:36;99668.78;;;3.20;74.84
20987;BME280;10652;50.306;8.570;2024-01-27T00:54:38;99658.41;;;3.20;74.84
20987;BME280;10652;50.306;8.570;2024-01-27T00:58:40;99665.34;;;3.21;74.88
20987;BME280;10652;50.306;8.570;2024-01-27T01:02:43;99677.44;;;3.19;75.26
20987;BME280;10652;50.306;8.570;2024-01-27T01:06:45;99679.09;;;3.14;75.44
20987;BME280;10652;50.306;8.570;2024-01-27T01:10:47;99673.03;;;3.11;76.57
20987;BME280;10652;50.306;8.570;2024-01-27T01:14:49;99681.75;;;3.17;77.01
20987;BME280;10652;50.306;8.570;2024-01-27T01:18:52;99686.13;;;3.21;77.20
20987;BME280;10652;50.306;8.570;2024-01-27T01:22:54;99686.94;;;3.19;77.34
20987;BME280;10652;50.306;8.570;2024-01-27T01:26:56;99685.25;;;3.24;78.34
20987;BME280;10652;50.306;8.570;2024-01-27T01:30:58;99702.63;;;3.29;78.12
20987;BME280;10652;50.306;8.570;2024-01-27T01:35:00;99699.97;;;3.23;78.39
20987;BME280;10652;50.306;8.570;2024-01-27T01:39:02;99711.22;;;3.24;78.71
20987;BME280;10652;50.306;8.570;2024-01-27T01:43:09;99717.31;;;3.27;79.24
20987;BME280;10652;50.306;8.570;2024-01-27T01:47:13;99721.69;;;3.33;79.57
20987;BME280;10652;50.306;8.570;2024-01-27T01:51:16;99719.13;;;3.34;79.37
20987;BME280;10652;50.306;8.570;2024-01-27T01:55:18;99727.78;;;3.36;79.26
20987;BME280;10652;50.306;8.570;2024-01-27T01:59:21;99713.09;;;3.38;79.57
20987;BME280;10652;50.306;8.570;2024-01-27T02:03:23;99710.50;;;3.38;79.15
20987;BME280;10652;50.306;8.570;2024-01-27T02:07:25;99723.41;;;3.32;78.98
20987;BME280;10652;50.306;8.570;2024-01-27T02:11:27;99722.50;;;3.24;78.95
20987;BME280;10652;50.306;8.570;2024-01-27T02:15:29;99717.13;;;3.09;79.15
20987;BME280;10652;50.306;8.570;2024-01-27T02:19:31;99721.34;;;2.93;80.01
20987;BME280;10652;50.306;8.570;2024-01-27T02:23:33;99729.84;;;2.82;82.00
20987;BME280;10652;50.306;8.570;2024-01-27T02:27:36;99730.63;;;2.72;81.74
20987;BME280;10652;50.306;8.570;2024-01-27T02:31:38;99727.00;;;2.58;81.88
20987;BME280;10652;50.306;8.570;2024-01-27T02:35:40;99731.19;;;2.48;82.61
20987;BME280;10652;50.306;8.570;2024-01-27T02:39:42;99722.47;;;2.40;83.02
20987;BME280;10652;50.306;8.570;2024-01-27T02:43:44;99727.53;;;2.31;83.65
20987;BME280;10652;50.306;8.570;2024-01-27T02:47:47;99728.31;;;2.25;83.99
20987;BME280;10652;50.306;8.570;2024-01-27T02:51:49;99729.97;;;2.20;84.58
20987;BME280;10652;50.306;8.570;2024-01-27T02:55:51;99737.66;;;2.14;84.42
20987;BME280;10652;50.306;8.570;2024-01-27T02:59:53;99735.88;;;2.09;84.77
20987;BME280;10652;50.306;8.570;2024-01-27T03:03:56;99733.22;;;2.04;85.38
20987;BME280;10652;50.306;8.570;2024-01-27T03:07:58;99735.75;;;2.01;85.70
20987;BME280;10652;50.306;8.570;2024-01-27T03:12:00;99742.63;;;1.99;86.09
20987;BME280;10652;50.306;8.570;2024-01-27T03:16:02;99742.56;;;1.94;86.28
20987;BME280;10652;50.306;8.570;2024-01-27T03:20:05;99744.19;;;1.88;86.19
20987;BME280;10652;50.306;8.570;2024-01-27T03:24:07;99746.69;;;1.82;86.25
20987;BME280;10652;50.306;8.570;2024-01-27T03:28:09;99748.34;;;1.77;86.63
20987;BME280;10652;50.306;8.570;2024-01-27T03:32:11;99751.75;;;1.74;86.96
20987;BME280;10652;50.306;8.570;2024-01-27T03:36:14;99742.19;;;1.70;87.17
20987;BME280;10652;50.306;8.570;2024-01-27T03:40:16;99744.72;;;1.66;87.42
20987;BME280;10652;50.306;8.570;2024-01-27T03:44:18;99741.13;;;1.57;87.12
20987;BME280;10652;50.306;8.570;2024-01-27T03:48:20;99735.88;;;1.53;87.98
20987;BME280;10652;50.306;8.570;2024-01-27T03:52:23;99734.09;;;1.50;88.23
20987;BME280;10652;50.306;8.570;2024-01-27T03:56:25;99743.59;;;1.50;88.60
20987;BME280;10652;50.306;8.570;2024-01-27T04:00:27;99745.25;;;1.46;88.60
20987;BME280;10652;50.306;8.570;2024-01-27T04:04:31;99742.63;;;1.43;88.95
20987;BME280;10652;50.306;8.570;2024-01-27T04:08:34;99750.34;;;1.40;88.77
20987;BME280;10652;50.306;8.570;2024-01-27T04:12:36;99760.69;;;1.39;89.14
20987;BME280;10652;50.306;8.570;2024-01-27T04:16:38;99762.34;;;1.37;89.42
20987;BME280;10652;50.306;8.570;2024-01-27T04:20:41;99760.69;;;1.39;89.59
20987;BME280;10652;50.306;8.570;2024-01-27T04:24:43;99769.31;;;1.39;89.45
20987;BME280;10652;50.306;8.570;2024-01-27T04:28:45;99759.69;;;1.31;89.13
20987;BME280;10652;50.306;8.570;2024-01-27T04:32:48;99759.53;;;1.22;88.59
20987;BME280;10652;50.306;8.570;2024-01-27T04:36:52;99766.34;;;1.18;88.86
20987;BME280;10652;50.306;8.570;2024-01-27T04:40:54;99770.53;;;1.11;88.49
20987;BME280;10652;50.306;8.570;2024-01-27T04:44:56;99774.69;;;1.02;88.50
20987;BME280;10652;50.306;8.570;2024-01-27T04:48:58;99791.78;;;0.94;88.37
20987;BME280;10652;50.306;8.570;2024-01-27T04:53:01;99782.19;;;0.88;89.19
20987;BME280;10652;50.306;8.570;2024-01-27T04:57:03;99781.00;;;0.73;88.02
20987;BME280;10652;50.306;8.570;2024-01-27T05:01:05;99772.31;;;0.69;89.29
20987;BME280;10652;50.306;8.570;2024-01-27T05:05:08;99786.66;;;0.55;88.15
20987;BME280;10652;50.306;8.570;2024-01-27T05:09:11;99789.94;;;0.45;89.14
20987;BME280;10652;50.306;8.570;2024-01-27T05:13:13;99793.25;;;0.39;89.79
20987;BME280;10652;50.306;8.570;2024-01-27T05:17:15;99802.59;;;0.34;89.77
20987;BME280;10652;50.306;8.570;2024-01-27T05:21:17;99805.97;;;0.30;90.25
20987;BME280;10652;50.306;8.570;2024-01-27T05:25:19;99805.75;;;0.21;90.07
20987;BME280;10652;50.306;8.570;2024-01-27T05:29:21;99806.44;;;0.14;90.46
20987;BME280;10652;50.306;8.570;2024-01-27T05:33:23;99806.19;;;0.02;90.50
20987;BME280;10652;50.306;8.570;2024-01-27T05:37:26;99817.00;;;-0.14;90.54
20987;BME280;10652;50.306;8.570;2024-01-27T05:41:28;99813.34;;;-0.23;91.55
20987;BME280;10652;50.306;8.570;2024-01-27T05:45:31;99816.84;;;-0.21;92.33
20987;BME280;10652;50.306;8.570;2024-01-27T05:49:33;99811.91;;;-0.11;92.86
20987;BME280;10652;50.306;8.570;2024-01-27T05:53:35;99818.81;;;-0.10;92.29
20987;BME280;10652;50.306;8.570;2024-01-27T05:57:39;99819.59;;;-0.13;92.36
20987;BME280;10652;50.306;8.570;2024-01-27T06:01:41;99820.34;;;-0.18;92.21
20987;BME280;10652;50.306;8.570;2024-01-27T06:05:45;99815.84;;;-0.26;92.83
20987;BME280;10652;50.306;8.570;2024-01-27T06:09:47;99827.00;;;-0.27;92.83
20987;BME280;10652;50.306;8.570;2024-01-27T06:13:49;99820.13;;;-0.28;92.61
20987;BME280;10652;50.306;8.570;2024-01-27T06:17:51;99827.81;;;-0.29;92.90
20987;BME280;10652;50.306;8.570;2024-01-27T06:21:54;99827.78;;;-0.31;91.99
20987;BME280;10652;50.306;8.570;2024-01-27T06:25:56;99843.09;;;-0.38;92.67
20987;BME280;10652;50.306;8.570;2024-01-27T06:29:58;99848.66;;;-0.56;91.54
20987;BME280;10652;50.306;8.570;2024-01-27T06:34:00;99861.34;;;-0.63;92.19
20987;BME280;10652;50.306;8.570;2024-01-27T06:38:03;99857.91;;;-0.64;92.81
20987;BME280;10652;50.306;8.570;2024-01-27T06:42:05;99863.22;;;-0.58;92.84
20987;BME280;10652;50.306;8.570;2024-01-27T06:46:07;99860.63;;;-0.58;92.83
20987;BME280;10652;50.306;8.570;2024-01-27T06:50:09;99856.34;;;-0.57;92.69
20987;BME280;10652;50.306;8.570;2024-01-27T06:54:12;99858.81;;;-0.62;91.83
20987;BME280;10652;50.306;8.570;2024-01-27T06:58:14;99849.75;;;-0.79;91.27
20987;BME280;10652;50.306;8.570;2024-01-27T07:02:18;99855.34;;;-0.94;91.98
20987;BME280;10652;50.306;8.570;2024-01-27T07:06:20;99849.38;;;-0.93;93.30
20987;BME280;10652;50.306;8.570;2024-01-27T07:10:22;99860.00;;;-0.82;93.75
20987;BME280;10652;50.306;8.570;2024-01-27T07:14:24;99866.25;;;-0.73;94.19
20987;BME280;10652;50.306;8.570;2024-01-27T07:18:26;99866.25;;;-0.73;93.79
20987;BME280;10652;50.306;8.570;2024-01-27T07:22:29;99868.97;;;-0.68;94.30
20987;BME280;10652;50.306;8.570;2024-01-27T07:26:31;99873.28;;;-0.67;93.84
20987;BME280;10652;50.306;8.570;2024-01-27T07:30:33;99866.59;;;-0.60;93.81
20987;BME280;10652;50.306;8.570;2024-01-27T07:34:36;99863.25;;;-0.56;93.67
20987;BME280;10652;50.306;8.570;2024-01-27T07:38:38;99859.06;;;-0.53;93.25
20987;BME280;10652;50.306;8.570;2024-01-27T07:42:40;99872.03;;;-0.50;93.16
20987;BME280;10652;50.306;8.570;2024-01-27T07:46:43;99865.34;;;-0.43;93.88
20987;BME280;10652;50.306;8.570;2024-01-27T07:50:45;99870.66;;;-0.37;93.85
20987;BME280;10652;50.306;8.570;2024-01-27T07:54:50;99866.69;;;-0.25;94.99
20987;BME280;10652;50.306;8.570;2024-01-27T07:58:52;99872.72;;;-0.24;94.66
20987;BME280;10652;50.306;8.570;2024-01-27T08:02:55;99872.78;;;-0.21;94.37
20987;BME280;10652;50.306;8.570;2024-01-27T08:06:57;99877.53;;;-0.03;96.22
20987;BME280;10652;50.306;8.570;2024-01-27T08:10:59;99883.41;;;-0.09;95.86
20987;BME280;10652;50.306;8.570;2024-01-27T08:15:01;99886.22;;;-0.01;96.02
20987;BME280;10652;50.306;8.570;2024-01-27T08:19:04;99884.72;;;0.10;97.43
20987;BME280;10652;50.306;8.570;2024-01-27T08:23:07;99887.53;;;0.19;97.33
20987;BME280;10652;50.306;8.570;2024-01-27T08:27:10;99897.31;;;0.32;98.72
20987;BME280;10652;50.306;8.570;2024-01-27T08:31:12;99886.81;;;0.62;100.00
20987;BME280;10652;50.306;8.570;2024-01-27T08:35:14;99894.53;;;0.60;97.86
20987;BME280;10652;50.306;8.570;2024-01-27T08:39:17;99901.47;;;0.61;97.71
20987;BME280;10652;50.306;8.570;2024-01-27T08:43:19;99904.22;;;0.69;97.71
20987;BME280;10652;50.306;8.570;2024-01-27T08:47:21;99892.41;;;0.82;97.11
20987;BME280;10652;50.306;8.570;2024-01-27T08:51:23;99904.06;;;1.02;97.82
20987;BME280;10652;50.306;8.570;2024-01-27T08:55:26;99913.81;;;1.15;96.72
20987;BME280;10652;50.306;8.570;2024-01-27T08:59:28;99918.34;;;1.25;95.97
20987;BME280;10652;50.306;8.570;2024-01-27T09:03:31;99918.59;;;1.37;95.26
20987;BME280;10652;50.306;8.570;2024-01-27T09:07:33;99909.41;;;1.53;95.73
20987;BME280;10652;50.306;8.570;2024-01-27T09:11:36;99927.84;;;1.70;95.61
20987;BME280;10652;50.306;8.570;2024-01-27T09:15:38;99924.88;;;1.95;96.27
20987;BME280;10652;50.306;8.570;2024-01-27T09:19:40;99925.94;;;2.09;95.70
20987;BME280;10652;50.306;8.570;2024-01-27T09:23:42;99924.38;;;2.17;94.76
20987;BME280;10652;50.306;8.570;2024-01-27T09:27:45;99926.28;;;2.29;93.82
20987;BME280;10652;50.306;8.570;2024-01-27T09:31:47;99929.09;;;2.42;93.01
20987;BME280;10652;50.306;8.570;2024-01-27T09:35:50;99941.47;;;2.59;91.85
20987;BME280;10652;50.306;8.570;2024-01-27T09:39:52;99945.13;;;2.73;90.22
20987;BME280;10652;50.306;8.570;2024-01-27T09:43:55;99947.13;;;2.92;90.34
20987;BME280;10652;50.306;8.570;2024-01-27T09:48:01;99945.63;;;3.09;89.49
20987;BME280;10652;50.306;8.570;2024-01-27T09:52:05;99954.41;;;3.17;88.23
20987;BME280;10652;50.306;8.570;2024-01-27T09:56:08;99955.38;;;3.27;88.20
20987;BME280;10652;50.306;8.570;2024-01-27T10:00:11;99951.19;;;3.36;87.25
20987;BME280;10652;50.306;8.570;2024-01-27T10:04:14;99943.53;;;3.47;86.58
20987;BME280;10652;50.306;8.570;2024-01-27T10:08:16;99937.63;;;3.62;87.70
20987;BME280;10652;50.306;8.570;2024-01-27T10:12:20;99942.97;;;3.74;86.28
20987;BME280;10652;50.306;8.570;2024-01-27T10:16:23;99943.94;;;3.83;85.04
20987;BME280;10652;50.306;8.570;2024-01-27T10:20:28;99937.16;;;3.95;83.40
20987;BME280;10652;50.306;8.570;2024-01-27T10:24:34;99939.88;;;4.08;81.62
20987;BME280;10652;50.306;8.570;2024-01-27T10:28:37;99933.00;;;4.18;78.53
20987;BME280;10652;50.306;8.570;2024-01-27T10:32:39;99926.16;;;4.24;77.76
20987;BME280;10652;50.306;8.570;2024-01-27T10:36:42;99925.34;;;4.33;76.92
20987;BME280;10652;50.306;8.570;2024-01-27T10:40:45;99920.28;;;4.48;76.71
20987;BME280;10652;50.306;8.570;2024-01-27T10:44:48;99910.81;;;4.58;76.29
20987;BME280;10652;50.306;8.570;2024-01-27T10:48:51;99907.38;;;4.65;75.33
20987;BME280;10652;50.306;8.570;2024-01-27T10:53:01;99898.75;;;4.72;74.16
20987;BME280;10652;50.306;8.570;2024-01-27T10:57:06;99888.34;;;4.72;69.52
20987;BME280;10652;50.306;8.570;2024-01-27T11:01:11;99883.16;;;4.80;71.98
20987;BME280;10652;50.306;8.570;2024-01-27T11:05:17;99887.59;;;5.00;72.43
20987;BME280;10652;50.306;8.570;2024-01-27T11:09:19;99890.25;;;5.06;70.93
20987;BME280;10652;50.306;8.570;2024-01-27T11:13:23;99873.78;;;5.12;69.51
20987;BME280;10652;50.306;8.570;2024-01-27T11:17:26;99866.84;;;5.15;66.21
20987;BME280;10652;50.306;8.570;2024-01-27T11:21:28;99871.19;;;5.21;66.76
20987;BME280;10652;50.306;8.570;2024-01-27T11:25:31;99860.78;;;5.32;67.10
20987;BME280;10652;50.306;8.570;2024-01-27T11:29:35;99866.06;;;5.44;66.75
20987;BME280;10652;50.306;8.570;2024-01-27T11:33:42;99872.16;;;5.52;65.80
20987;BME280;10652;50.306;8.570;2024-01-27T11:37:45;99873.03;;;5.60;64.82
20987;BME280;10652;50.306;8.570;2024-01-27T11:41:49;99880.03;;;5.67;64.19
20987;BME280;10652;50.306;8.570;2024-01-27T11:45:58;99868.72;;;5.73;63.24
20987;BME280;10652;50.306;8.570;2024-01-27T11:50:02;99873.06;;;5.78;62.93
20987;BME280;10652;50.306;8.570;2024-01-27T11:54:05;99883.50;;;5.87;62.61
20987;BME280;10652;50.306;8.570;2024-01-27T11:58:07;99879.19;;;5.92;62.18
20987;BME280;10652;50.306;8.570;2024-01-27T12:02:09;99881.81;;;5.94;61.20
20987;BME280;10652;50.306;8.570;2024-01-27T12:06:12;99870.47;;;5.80;59.43
20987;BME280;10652;50.306;8.570;2024-01-27T12:10:16;99881.75;;;5.77;60.73
20987;BME280;10652;50.306;8.570;2024-01-27T12:14:18;99867.84;;;5.90;61.23
20987;BME280;10652;50.306;8.570;2024-01-27T12:18:21;99873.97;;;5.94;59.46
20987;BME280;10652;50.306;8.570;2024-01-27T12:22:26;99870.50;;;5.93;60.44
20987;BME280;10652;50.306;8.570;2024-01-27T12:26:30;99880.94;;;6.16;63.76
20987;BME280;10652;50.306;8.570;2024-01-27T12:30:32;99869.66;;;6.31;61.38
20987;BME280;10652;50.306;8.570;2024-01-27T12:34:42;99861.81;;;6.37;59.55
20987;BME280;10652;50.306;8.570;2024-01-27T12:38:57;99862.63;;;6.27;58.29
20987;BME280;10652;50.306;8.570;2024-01-27T12:43:00;99862.66;;;6.18;59.76
20987;BME280;10652;50.306;8.570;2024-01-27T12:47:02;99850.50;;;6.32;59.73
20987;BME280;10652;50.306;8.570;2024-01-27T12:51:04;99859.19;;;6.43;58.93
20987;BME280;10652;50.306;8.570;2024-01-27T12:55:07;99852.22;;;6.51;58.48
20987;BME280;10652;50.306;8.570;2024-01-27T12:59:10;99859.19;;;6.54;59.43
20987;BME280;10652;50.306;8.570;2024-01-27T13:03:12;99849.59;;;6.57;60.10
20987;BME280;10652;50.306;8.570;2024-01-27T13:07:15;99844.38;;;6.56;61.23
20987;BME280;10652;50.306;8.570;2024-01-27T13:11:17;99841.78;;;6.57;61.55
20987;BME280;10652;50.306;8.570;2024-01-27T13:15:19;99833.94;;;6.57;61.44
20987;BME280;10652;50.306;8.570;2024-01-27T13:19:22;99834.81;;;6.58;61.46
20987;BME280;10652;50.306;8.570;2024-01-27T13:23:24;99840.03;;;6.53;61.69
20987;BME280;10652;50.306;8.570;2024-01-27T13:27:26;99837.44;;;6.47;61.92
20987;BME280;10652;50.306;8.570;2024-01-27T13:31:32;99838.31;;;6.44;61.89
20987;BME280;10652;50.306;8.570;2024-01-27T13:35:34;99833.97;;;6.42;61.98
20987;BME280;10652;50.306;8.570;2024-01-27T13:39:37;99842.66;;;6.42;62.44
20987;BME280;10652;50.306;8.570;2024-01-27T13:43:39;99826.09;;;6.45;62.74
20987;BME280;10652;50.306;8.570;2024-01-27T13:47:41;99827.00;;;6.42;62.63
20987;BME280;10652;50.306;8.570;2024-01-27T13:51:43;99817.44;;;6.37;62.58
20987;BME280;10652;50.306;8.570;2024-01-27T13:55:45;99816.56;;;6.33;62.62
20987;BME280;10652;50.306;8.570;2024-01-27T13:59:47;99808.72;;;6.27;62.79
20987;BME280;10652;50.306;8.570;2024-01-27T14:03:49;99805.25;;;6.24;62.49
20987;BME280;10652;50.306;8.570;2024-01-27T14:07:52;99817.44;;;6.17;62.51
20987;BME280;10652;50.306;8.570;2024-01-27T14:11:54;99815.69;;;6.12;62.18
20987;BME280;10652;50.306;8.570;2024-01-27T14:15:56;99820.06;;;6.07;61.99
20987;BME280;10652;50.306;8.570;2024-01-27T14:20:00;99806.13;;;6.04;62.10
20987;BME280;10652;50.306;8.570;2024-01-27T14:24:03;99805.28;;;6.02;61.86
20987;BME280;10652;50.306;8.570;2024-01-27T14:28:08;99802.66;;;5.99;61.64
20987;BME280;10652;50.306;8.570;2024-01-27T14:32:11;99807.03;;;5.94;61.50
20987;BME280;10652;50.306;8.570;2024-01-27T14:36:14;99812.25;;;5.85;61.56
20987;BME280;10652;50.306;8.570;2024-01-27T14:40:16;99807.00;;;5.79;61.93
20987;BME280;10652;50.306;8.570;2024-01-27T14:44:20;99812.25;;;5.76;62.09
20987;BME280;10652;50.306;8.570;2024-01-27T14:48:24;99812.22;;;5.73;62.55
20987;BME280;10652;50.306;8.570;2024-01-27T14:52:27;99809.63;;;5.67;62.90
20987;BME280;10652;50.306;8.570;2024-01-27T14:56:30;99794.81;;;5.60;62.81
20987;BME280;10652;50.306;8.570;2024-01-27T15:00:33;99802.66;;;5.54;63.27
20987;BME280;10652;50.306;8.570;2024-01-27T15:04:35;99806.97;;;5.46;63.70
20987;BME280;10652;50.306;8.570;2024-01-27T15:08:38;99806.97;;;5.41;64.19
20987;BME280;10652;50.306;8.570;2024-01-27T15:12:40;99808.72;;;5.35;64.70
20987;BME280;10652;50.306;8.570;2024-01-27T15:16:42;99813.88;;;5.29;64.97
20987;BME280;10652;50.306;8.570;2024-01-27T15:20:44;99810.41;;;5.18;65.23
20987;BME280;10652;50.306;8.570;2024-01-27T15:24:47;99810.38;;;5.08;65.61
20987;BME280;10652;50.306;8.570;2024-01-27T15:28:49;99807.72;;;5.01;65.74
20987;BME280;10652;50.306;8.570;2024-01-27T15:32:51;99810.31;;;4.98;66.00
20987;BME280;10652;50.306;8.570;2024-01-27T15:36:53;99800.75;;;4.89;66.23
20987;BME280;10652;50.306;8.570;2024-01-27T15:40:55;99798.97;;;4.81;66.62
20987;BME280;10652;50.306;8.570;2024-01-27T15:44:58;99792.00;;;4.70;67.01
20987;BME280;10652;50.306;8.570;2024-01-27T15:49:00;99789.31;;;4.60;67.78
20987;BME280;10652;50.306;8.570;2024-01-27T15:53:02;99797.94;;;4.50;68.06
20987;BME280;10652;50.306;8.570;2024-01-27T15:57:05;99800.47;;;4.36;68.17
20987;BME280;10652;50.306;8.570;2024-01-27T16:01:08;99805.63;;;4.25;68.96
20987;BME280;10652;50.306;8.570;2024-01-27T16:05:10;99813.31;;;4.10;69.17
20987;BME280;10652;50.306;8.570;2024-01-27T16:09:12;99823.63;;;3.98;69.63
20987;BME280;10652;50.306;8.570;2024-01-27T16:13:14;99820.13;;;3.90;70.50
20987;BME280;10652;50.306;8.570;2024-01-27T16:17:16;99818.25;;;3.81;71.05
20987;BME280;10652;50.306;8.570;2024-01-27T16:21:19;99814.72;;;3.73;70.83
20987;BME280;10652;50.306;8.570;2024-01-27T16:25:21;99821.53;;;3.61;71.29
20987;BME280;10652;50.306;8.570;2024-01-27T16:29:23;99821.38;;;3.46;71.72
20987;BME280;10652;50.306;8.570;2024-01-27T16:33:25;99809.13;;;3.31;72.60
20987;BME280;10652;50.306;8.570;2024-01-27T16:37:28;99811.53;;;3.14;72.72
20987;BME280;10652;50.306;8.570;2024-01-27T16:41:30;99822.66;;;3.01;73.26
20987;BME280;10652;50.306;8.570;2024-01-27T16:45:32;99818.19;;;2.91;73.85
20987;BME280;10652;50.306;8.570;2024-01-27T16:49:36;99819.91;;;2.89;74.74
20987;BME280;10652;50.306;8.570;2024-01-27T16:53:38;99829.41;;;2.85;74.71
20987;BME280;10652;50.306;8.570;2024-01-27T16:57:40;99831.06;;;2.80;75.21
20987;BME280;10652;50.306;8.570;2024-01-27T17:01:43;99837.06;;;2.78;75.76
20987;BME280;10652;50.306;8.570;2024-01-27T17:05:45;99835.34;;;2.78;75.69
20987;BME280;10652;50.306;8.570;2024-01-27T17:09:48;99830.03;;;2.69;75.39
20987;BME280;10652;50.306;8.570;2024-01-27T17:13:50;99837.75;;;2.65;75.74
20987;BME280;10652;50.306;8.570;2024-01-27T17:17:52;99837.69;;;2.59;76.10
20987;BME280;10652;50.306;8.570;2024-01-27T17:21:55;99837.56;;;2.50;76.16
20987;BME280;10652;50.306;8.570;2024-01-27T17:25:57;99840.03;;;2.42;76.19
20987;BME280;10652;50.306;8.570;2024-01-27T17:29:59;99844.31;;;2.38;76.25
20987;BME280;10652;50.306;8.570;2024-01-27T17:34:05;99853.78;;;2.35;76.55
20987;BME280;10652;50.306;8.570;2024-01-27T17:38:07;99848.56;;;2.33;76.42
20987;BME280;10652;50.306;8.570;2024-01-27T17:42:09;99842.25;;;2.16;75.81
20987;BME280;10652;50.306;8.570;2024-01-27T17:46:13;99853.38;;;2.09;76.58
20987;BME280;10652;50.306;8.570;2024-01-27T17:50:16;99848.94;;;2.02;76.87
20987;BME280;10652;50.306;8.570;2024-01-27T17:54:18;99859.97;;;1.89;76.32
20987;BME280;10652;50.306;8.570;2024-01-27T17:58:21;99851.88;;;1.71;77.70
20987;BME280;10652;50.306;8.570;2024-01-27T18:02:23;99858.66;;;1.64;78.68
20987;BME280;10652;50.306;8.570;2024-01-27T18:06:28;99866.28;;;1.56;78.76
20987;BME280;10652;50.306;8.570;2024-01-27T18:10:30;99869.66;;;1.51;79.44
20987;BME280;10652;50.306;8.570;2024-01-27T18:14:34;99858.41;;;1.50;79.95
20987;BME280;10652;50.306;8.570;2024-01-27T18:18:36;99855.66;;;1.41;80.03
20987;BME280;10652;50.306;8.570;2024-01-27T18:22:39;99859.66;;;1.24;80.31
20987;BME280;10652;50.306;8.570;2024-01-27T18:26:41;99858.78;;;1.24;81.08
20987;BME280;10652;50.306;8.570;2024-01-27T18:30:43;99859.56;;;1.20;81.11
20987;BME280;10652;50.306;8.570;2024-01-27T18:34:46;99865.66;;;1.22;82.99
20987;BME280;10652;50.306;8.570;2024-01-27T18:38:48;99850.38;;;1.35;85.35
20987;BME280;10652;50.306;8.570;2024-01-27T18:42:50;99849.47;;;1.33;85.66
20987;BME280;10652;50.306;8.570;2024-01-27T18:46:52;99861.63;;;1.36;85.85
20987;BME280;10652;50.306;8.570;2024-01-27T18:50:54;99862.22;;;1.24;84.99
20987;BME280;10652;50.306;8.570;2024-01-27T18:54:56;99869.63;;;1.06;83.80
20987;BME280;10652;50.306;8.570;2024-01-27T18:58:59;99874.56;;;0.94;83.64
20987;BME280;10652;50.306;8.570;2024-01-27T19:03:04;99867.59;;;0.90;83.59
20987;BME280;10652;50.306;8.570;2024-01-27T19:07:11;99857.06;;;0.81;82.73
20987;BME280;10652;50.306;8.570;2024-01-27T19:11:15;99856.97;;;0.78;82.83
20987;BME280;10652;50.306;8.570;2024-01-27T19:15:17;99844.81;;;0.74;83.13
20987;BME280;10652;50.306;8.570;2024-01-27T19:19:19;99839.44;;;0.64;83.12
20987;BME280;10652;50.306;8.570;2024-01-27T19:23:21;99842.63;;;0.51;82.00
20987;BME280;10652;50.306;8.570;2024-01-27T19:27:23;99843.28;;;0.43;81.68
20987;BME280;10652;50.306;8.570;2024-01-27T19:31:25;99861.13;;;0.31;82.18
20987;BME280;10652;50.306;8.570;2024-01-27T19:35:28;99854.06;;;0.23;82.96
20987;BME280;10652;50.306;8.570;2024-01-27T19:39:30;99855.47;;;0.11;82.52
20987;BME280;10652;50.306;8.570;2024-01-27T19:43:32;99848.09;;;-0.10;82.74
20987;BME280;10652;50.306;8.570;2024-01-27T19:47:34;99848.78;;;-0.17;83.84
20987;BME280;10652;50.306;8.570;2024-01-27T19:51:43;99844.50;;;-0.16;84.62
20987;BME280;10652;50.306;8.570;2024-01-27T19:55:45;99842.84;;;-0.14;84.89
20987;BME280;10652;50.306;8.570;2024-01-27T19:59:47;99837.72;;;-0.11;84.79
20987;BME280;10652;50.306;8.570;2024-01-27T20:03:50;99830.13;;;-0.05;84.01
20987;BME280;10652;50.306;8.570;2024-01-27T20:07:52;99835.25;;;-0.07;83.86
20987;BME280;10652;50.306;8.570;2024-01-27T20:11:55;99836.91;;;-0.09;83.47
20987;BME280;10652;50.306;8.570;2024-01-27T20:15:57;99834.09;;;-0.19;82.49
20987;BME280;10652;50.306;8.570;2024-01-27T20:19:59;99835.00;;;-0.52;81.84
20987;BME280;10652;50.306;8.570;2024-01-27T20:24:01;99831.41;;;-0.57;83.82
20987;BME280;10652;50.306;8.570;2024-01-27T20:28:03;99833.06;;;-0.59;83.92
20987;BME280;10652;50.306;8.570;2024-01-27T20:32:06;99839.50;;;-0.76;83.87
20987;BME280;10652;50.306;8.570;2024-01-27T20:36:08;99834.91;;;-0.86;85.37
20987;BME280;10652;50.306;8.570;2024-01-27T20:40:11;99836.91;;;-0.78;88.07
20987;BME280;10652;50.306;8.570;2024-01-27T20:44:13;99838.75;;;-0.72;88.19
20987;BME280;10652;50.306;8.570;2024-01-27T20:48:15;99834.09;;;-0.85;87.56
20987;BME280;10652;50.306;8.570;2024-01-27T20:52:23;99834.09;;;-0.85;88.58
20987;BME280;10652;50.306;8.570;2024-01-27T20:56:25;99829.13;;;-0.79;89.54
20987;BME280;10652;50.306;8.570;2024-01-27T21:00:29;99826.78;;;-0.70;89.78
20987;BME280;10652;50.306;8.570;2024-01-27T21:04:31;99817.34;;;-0.68;89.17
20987;BME280;10652;50.306;8.570;2024-01-27T21:08:34;99814.81;;;-0.67;88.90
20987;BME280;10652;50.306;8.570;2024-01-27T21:12:36;99813.88;;;-0.70;88.40
20987;BME280;10652;50.306;8.570;2024-01-27T21:16:38;99814.66;;;-0.73;88.72
20987;BME280;10652;50.306;8.570;2024-01-27T21:20:41;99820.44;;;-0.81;88.46
20987;BME280;10652;50.306;8.570;2024-01-27T21:24:43;99823.78;;;-0.85;88.78
20987;BME280;10652;50.306;8.570;2024-01-27T21:28:45;99822.84;;;-0.89;89.29
20987;BME280;10652;50.306;8.570;2024-01-27T21:32:48;99825.34;;;-0.90;89.34
20987;BME280;10652;50.306;8.570;2024-01-27T21:36:50;99814.91;;;-0.96;88.98